This is the latest recevied weather packets stored in our database for station/object IU5JAE-13. If no packets are shown the sender has not sent any weather packets the latest 10 day(s).
| Time | Temp. | Humidity | Pressure | Rain* | Wind** | Luminosity | Snow |
|---|---|---|---|---|---|---|---|
| 1777322124 | 13.33° C | 67% | 1017.4 hPa | 0 mm | - | 0 W/m² | - |
| 1777321522 | 13.89° C | 67% | 1017.5 hPa | 0 mm | - | 0 W/m² | - |
| 1777320919 | 14.44° C | 66% | 1017.5 hPa | 0 mm | - | 0 W/m² | - |
| 1777320317 | 14.44° C | 63% | 1017.4 hPa | 0 mm | - | 0 W/m² | - |
| 1777319734 | 15° C | 61% | 1017.5 hPa | 0 mm | - | 0 W/m² | - |
| 1777319132 | 15° C | 59% | 1017.4 hPa | 0 mm | - | 0 W/m² | - |
| 1777318530 | 15° C | 62% | 1017.4 hPa | 0 mm | - | 0 W/m² | - |
| 1777317927 | 15° C | 62% | 1017.3 hPa | 0 mm | - | 0 W/m² | - |
| 1777317325 | 15.56° C | 59% | 1017.2 hPa | 0 mm | - | 0 W/m² | - |
| 1777316722 | 15° C | 59% | 1017.2 hPa | 0 mm | - | 0 W/m² | - |
| 1777316120 | 15° C | 61% | 1017.1 hPa | 0 mm | - | 0 W/m² | - |
| 1777315518 | 15.56° C | 59% | 1017 hPa | 0 mm | - | 0 W/m² | - |
| 1777314935 | 15.56° C | 59% | 1016.9 hPa | 0 mm | - | 0 W/m² | - |
| 1777314333 | 15.56° C | 58% | 1016.8 hPa | 0 mm | - | 1 W/m² | - |
| 1777313730 | 15.56° C | 58% | 1016.8 hPa | 0 mm | - | 3 W/m² | - |
| 1777313128 | 15° C | 58% | 1016.7 hPa | 0 mm | - | 7 W/m² | - |
| 1777312525 | 15° C | 63% | 1016.8 hPa | 0 mm | - | 11 W/m² | - |
| 1777311923 | 15° C | 63% | 1016.8 hPa | 0 mm | - | 14 W/m² | - |
| 1777311321 | 16.11° C | 54% | 1016.8 hPa | 0 mm | - | 17 W/m² | - |
| 1777310718 | 16.11° C | 56% | 1016.7 hPa | 0 mm | - | 19 W/m² | - |
| 1777310116 | 16.67° C | 51% | 1016.7 hPa | 0 mm | - | 19 W/m² | - |
| 1777309534 | 16.67° C | 54% | 1016.7 hPa | 0 mm | - | 21 W/m² | - |
| 1777308932 | 17.22° C | 51% | 1016.8 hPa | 0 mm | - | 24 W/m² | - |
| 1777308329 | 17.22° C | 50% | 1016.8 hPa | 0 mm | - | 31 W/m² | - |
| 1777307726 | 17.78° C | 50% | 1016.8 hPa | 0 mm | - | 35 W/m² | - |
* Rain latest hour (hover to see other rain measurements)
** Current wind speed in m/s (hover to see current wind gust speed)